Time;durP1;ratioP1;P1;durP2;ratioP2;P2;SDS_P1;SDS_P2;PMS_P1;PMS_P2;Temp;Humidity;BMP_temperature;BMP_pressure;BME280_temperature;BME280_humidity;BME280_pressure;Samples;Min_cycle;Max_cycle;Signal;HPM_P1;HPM_P2
2022/07/17 00:00:31;;;;;;;2.47;1.15;;;20.70;62.00;;;;;;4968878;28;20054;-54
2022/07/17 00:02:58;;;;;;;1.70;1.00;;;20.60;62.20;;;;;;4969128;28;20198;-54
2022/07/17 00:05:24;;;;;;;1.30;0.80;;;20.50;62.30;;;;;;4970203;28;20101;-53
2022/07/17 00:07:52;;;;;;;2.42;1.05;;;20.60;62.50;;;;;;4968883;28;20055;-52
2022/07/17 00:10:19;;;;;;;1.55;1.13;;;20.60;62.50;;;;;;4966400;28;20051;-54
2022/07/17 00:12:46;;;;;;;2.25;1.02;;;20.50;62.60;;;;;;4968000;28;20047;-54
2022/07/17 00:15:12;;;;;;;2.55;1.23;;;20.40;62.80;;;;;;4969354;28;20109;-54
2022/07/17 00:17:40;;;;;;;4.75;1.20;;;20.40;63.00;;;;;;4968496;28;20038;-55
2022/07/17 00:20:07;;;;;;;1.83;0.93;;;20.40;63.10;;;;;;4969120;28;20102;-53
2022/07/17 00:22:34;;;;;;;6.13;0.90;;;20.40;63.10;;;;;;4968801;28;20042;-54
2022/07/17 00:25:01;;;;;;;1.40;0.85;;;20.40;63.40;;;;;;4969396;28;20399;-55
2022/07/17 00:27:28;;;;;;;3.75;1.05;;;20.30;63.40;;;;;;4969100;28;20467;-55
2022/07/17 00:29:55;;;;;;;1.38;0.90;;;20.30;63.60;;;;;;4969723;28;20113;-51
2022/07/17 00:32:23;;;;;;;6.15;1.10;;;20.20;63.90;;;;;;4969098;28;20120;-51
2022/07/17 00:34:50;;;;;;;0.98;0.70;;;20.20;64.00;;;;;;4969815;28;20058;-52
2022/07/17 00:37:18;;;;;;;2.03;0.82;;;20.20;64.20;;;;;;4969621;28;20053;-53
2022/07/17 00:39:45;;;;;;;6.03;1.05;;;20.20;64.20;;;;;;4969928;28;20510;-56
2022/07/17 00:42:12;;;;;;;3.58;1.23;;;20.10;64.20;;;;;;4968602;28;20043;-53
2022/07/17 00:44:40;;;;;;;6.10;1.10;;;20.10;64.60;;;;;;4614528;28;10000009;-55
2022/07/17 00:47:18;;;;;;;3.53;1.17;;;20.10;64.80;;;;;;4966002;28;20138;-57
2022/07/17 00:49:45;;;;;;;3.50;0.98;;;20.00;65.90;;;;;;4969322;28;20062;-54
2022/07/17 00:52:13;;;;;;;2.28;1.08;;;20.00;65.10;;;;;;4968274;28;20576;-54
2022/07/17 00:54:41;;;;;;;1.95;1.17;;;19.90;65.20;;;;;;4969347;28;20122;-54
2022/07/17 00:57:10;;;;;;;2.88;1.10;;;19.90;65.50;;;;;;4969427;28;20042;-54
2022/07/17 00:59:37;;;;;;;5.70;0.95;;;19.80;65.90;;;;;;4967961;28;20054;-53
2022/07/17 01:02:07;;;;;;;1.38;0.93;;;19.70;66.20;;;;;;4967635;28;20082;-54
2022/07/17 01:04:34;;;;;;;3.08;1.45;;;19.60;66.60;;;;;;4968966;28;20046;-55
2022/07/17 01:07:02;;;;;;;3.38;1.27;;;19.60;66.60;;;;;;4969541;28;20050;-52
2022/07/17 01:09:29;;;;;;;4.65;1.02;;;19.50;67.00;;;;;;4966918;28;20138;-51
2022/07/17 01:11:56;;;;;;;3.00;1.52;;;19.50;67.10;;;;;;4965609;28;20175;-53
2022/07/17 01:14:23;;;;;;;3.78;1.17;;;19.50;67.30;;;;;;4967171;28;20059;-54
2022/07/17 01:16:51;;;;;;;2.65;1.33;;;19.40;67.50;;;;;;4967067;28;20531;-52
2022/07/17 01:19:18;;;;;;;3.50;1.38;;;19.40;67.60;;;;;;4967232;28;20090;-54
2022/07/17 01:21:49;;;;;;;2.78;1.08;;;19.40;67.80;;;;;;4966905;28;20549;-53
2022/07/17 01:24:16;;;;;;;2.22;1.10;;;19.40;68.50;;;;;;4965973;28;20656;-53
2022/07/17 01:26:44;;;;;;;4.13;1.30;;;19.40;68.10;;;;;;4969068;28;20059;-54
2022/07/17 01:29:11;;;;;;;1.48;0.93;;;19.40;68.30;;;;;;4967730;28;20117;-54
2022/07/17 01:31:39;;;;;;;2.40;1.10;;;19.30;68.50;;;;;;4968287;28;20506;-52
2022/07/17 01:34:06;;;;;;;1.75;1.00;;;19.30;68.90;;;;;;4967562;28;20117;-52
2022/07/17 01:36:33;;;;;;;2.00;1.15;;;19.30;69.20;;;;;;4968445;28;20097;-54
2022/07/17 01:39:01;;;;;;;4.15;1.65;;;19.20;69.50;;;;;;4967779;28;20459;-55
2022/07/17 01:41:27;;;;;;;2.05;1.00;;;19.20;69.80;;;;;;4966697;28;20090;-53
2022/07/17 01:43:55;;;;;;;1.95;1.13;;;19.20;70.20;;;;;;4968721;28;20062;-54
2022/07/17 01:46:22;;;;;;;3.72;1.40;;;19.10;70.40;;;;;;4967891;28;20046;-54
2022/07/17 01:48:49;;;;;;;5.07;1.95;;;19.10;70.70;;;;;;4968508;28;20047;-54
2022/07/17 01:51:15;;;;;;;3.97;1.88;;;19.00;70.90;;;;;;4967301;28;20129;-53
2022/07/17 01:53:42;;;;;;;1.67;1.08;;;19.00;71.20;;;;;;4968652;28;20510;-54
2022/07/17 01:56:09;;;;;;;3.47;1.35;;;19.00;71.50;;;;;;4968423;28;20050;-55
2022/07/17 01:58:36;;;;;;;1.33;1.02;;;18.90;71.80;;;;;;4970441;28;20534;-52
2022/07/17 02:01:02;;;;;;;2.53;1.33;;;18.90;72.40;;;;;;4972430;28;20149;-53
2022/07/17 02:03:29;;;;;;;3.80;1.30;;;18.80;72.80;;;;;;4972152;28;20046;-53
2022/07/17 02:05:56;;;;;;;4.57;1.00;;;18.70;73.50;;;;;;4972042;28;20051;-55
2022/07/17 02:08:23;;;;;;;4.13;1.13;;;18.70;74.10;;;;;;4971848;28;20098;-52
2022/07/17 02:10:50;;;;;;;2.42;1.20;;;18.60;74.50;;;;;;4972610;28;20043;-52
2022/07/17 02:13:17;;;;;;;3.08;1.50;;;18.70;74.90;;;;;;4970058;28;20098;-54
2022/07/17 02:15:43;;;;;;;8.45;1.67;;;18.70;75.10;;;;;;4971922;28;20047;-53
2022/07/17 02:18:10;;;;;;;4.50;1.38;;;18.70;75.30;;;;;;4972301;28;20051;-52
2022/07/17 02:20:38;;;;;;;5.25;1.30;;;18.70;75.60;;;;;;4972231;28;20043;-53
2022/07/17 02:23:05;;;;;;;4.57;1.08;;;18.70;76.10;;;;;;4962624;28;20490;-52
2022/07/17 02:25:32;;;;;;;9.13;2.33;;;18.60;76.60;;;;;;4970230;28;20051;-53
2022/07/17 02:27:59;;;;;;;2.38;1.38;;;18.40;77.40;;;;;;4972131;28;20835;-52
2022/07/17 02:30:25;;;;;;;3.13;1.15;;;18.40;78.30;;;;;;4971984;28;20533;-53
2022/07/17 02:32:52;;;;;;;2.47;1.38;;;18.30;78.90;;;;;;4971030;28;20046;-53
2022/07/17 02:35:19;;;;;;;4.20;1.55;;;18.30;79.80;;;;;;4971890;28;20055;-50
2022/07/17 02:37:46;;;;;;;4.95;1.90;;;18.30;80.50;;;;;;4971874;28;20047;-54
2022/07/17 02:40:13;;;;;;;2.03;1.48;;;18.20;81.10;;;;;;4971674;28;20055;-53
2022/07/17 02:42:40;;;;;;;3.45;1.50;;;18.20;81.70;;;;;;4970919;28;20093;-54
2022/07/17 02:45:07;;;;;;;3.13;1.40;;;18.20;82.50;;;;;;4967919;28;20071;-55
2022/07/17 02:47:34;;;;;;;1.98;1.20;;;18.10;83.10;;;;;;4972059;28;20082;-54
2022/07/17 02:50:04;;;;;;;3.78;1.20;;;18.10;83.60;;;;;;4971867;28;20093;-53
2022/07/17 02:52:30;;;;;;;2.60;1.27;;;18.10;84.60;;;;;;4970908;28;20042;-54
2022/07/17 02:54:57;;;;;;;4.28;1.20;;;18.20;84.90;;;;;;4970976;28;20499;-55
2022/07/17 02:57:24;;;;;;;6.20;1.63;;;18.10;85.10;;;;;;4971582;28;20228;-55
2022/07/17 02:59:51;;;;;;;3.17;1.48;;;18.10;85.50;;;;;;4971462;28;20442;-54
2022/07/17 03:02:18;;;;;;;3.35;1.35;;;18.10;85.80;;;;;;4967166;28;20074;-55
2022/07/17 03:04:45;;;;;;;4.45;1.60;;;18.10;86.40;;;;;;4971251;28;20055;-54
2022/07/17 03:07:11;;;;;;;3.53;1.30;;;18.10;86.80;;;;;;4971234;28;20070;-55
2022/07/17 03:09:38;;;;;;;2.33;1.42;;;18.10;87.20;;;;;;4970782;28;20518;-52
2022/07/17 03:12:05;;;;;;;2.47;1.52;;;18.10;87.40;;;;;;4970067;28;20085;-54
2022/07/17 03:14:32;;;;;;;2.78;1.27;;;18.10;87.50;;;;;;4970742;28;20105;-54
2022/07/17 03:16:59;;;;;;;3.33;1.40;;;18.10;87.70;;;;;;4970180;28;20047;-54
2022/07/17 03:19:26;;;;;;;4.28;1.67;;;18.10;88.30;;;;;;4970442;28;20042;-55
2022/07/17 03:21:53;;;;;;;1.80;1.20;;;18.00;88.60;;;;;;4970843;28;20082;-51
2022/07/17 03:24:20;;;;;;;3.00;1.25;;;18.00;88.90;;;;;;4970207;28;20078;-54
2022/07/17 03:26:47;;;;;;;4.65;1.40;;;17.90;89.40;;;;;;4971603;28;20566;-50
2022/07/17 03:29:17;;;;;;;3.17;1.20;;;17.90;89.70;;;;;;4970315;28;20687;-55
2022/07/17 03:31:44;;;;;;;3.35;1.30;;;17.80;90.20;;;;;;4967682;28;20134;-54
2022/07/17 03:34:11;;;;;;;3.58;1.58;;;17.70;90.70;;;;;;4970790;28;20639;-53
2022/07/17 03:36:38;;;;;;;5.22;1.20;;;17.60;91.10;;;;;;4969601;28;20078;-55
2022/07/17 03:39:06;;;;;;;1.38;1.02;;;17.60;91.50;;;;;;4970863;28;20051;-53
2022/07/17 03:41:32;;;;;;;5.15;1.98;;;17.60;91.80;;;;;;4970254;28;20090;-53
2022/07/17 03:43:59;;;;;;;5.55;1.50;;;17.60;92.00;;;;;;4970900;28;20050;-54
2022/07/17 03:46:27;;;;;;;2.58;1.42;;;17.60;92.40;;;;;;4970226;28;20082;-54
2022/07/17 03:48:54;;;;;;;6.28;1.52;;;17.60;92.60;;;;;;4970718;28;20042;-55
2022/07/17 03:51:21;;;;;;;3.78;1.30;;;17.70;92.90;;;;;;4969354;28;20363;-54
2022/07/17 03:53:48;;;;;;;5.03;1.55;;;17.70;93.00;;;;;;4970453;28;20051;-53
2022/07/17 03:56:14;;;;;;;3.60;1.50;;;17.70;93.30;;;;;;4970444;28;20046;-54
2022/07/17 03:58:41;;;;;;;2.17;1.20;;;17.80;93.50;;;;;;4970703;28;20137;-55
2022/07/17 04:01:08;;;;;;;2.47;1.15;;;17.80;93.50;;;;;;4970419;28;20081;-53
2022/07/17 04:03:35;;;;;;;3.00;1.35;;;17.80;93.60;;;;;;4966685;28;20109;-54
2022/07/17 04:06:02;;;;;;;3.63;1.65;;;17.80;93.70;;;;;;4970414;28;20042;-55
2022/07/17 04:08:29;;;;;;;2.35;1.10;;;17.90;93.90;;;;;;4970287;28;20098;-55
2022/07/17 04:10:56;;;;;;;3.50;1.67;;;17.90;94.00;;;;;;4968930;28;20039;-54
2022/07/17 04:13:23;;;;;;;3.00;1.27;;;17.90;93.90;;;;;;4969001;28;20051;-57
2022/07/17 04:15:52;;;;;;;7.20;1.80;;;17.90;93.80;;;;;;4969788;28;20051;-54
2022/07/17 04:18:20;;;;;;;3.30;1.25;;;17.80;94.00;;;;;;4969558;28;20139;-55
2022/07/17 04:20:48;;;;;;;4.10;1.20;;;17.70;94.30;;;;;;4952140;28;20051;-53
2022/07/17 04:23:15;;;;;;;5.88;1.45;;;17.70;94.40;;;;;;4968733;28;20058;-54
2022/07/17 04:25:41;;;;;;;8.35;2.03;;;17.70;94.50;;;;;;4969209;28;20152;-52
2022/07/17 04:28:08;;;;;;;5.28;1.58;;;17.70;94.70;;;;;;4970308;28;20154;-54
2022/07/17 04:30:35;;;;;;;6.20;1.63;;;17.70;94.90;;;;;;4969845;28;20074;-55
2022/07/17 04:33:02;;;;;;;3.85;1.48;;;17.70;95.10;;;;;;4968937;28;20078;-52
2022/07/17 04:35:29;;;;;;;4.18;1.50;;;17.60;95.30;;;;;;4969473;28;20046;-51
2022/07/17 04:37:56;;;;;;;3.60;2.13;;;17.50;95.60;;;;;;4970172;28;20046;-54
2022/07/17 04:40:23;;;;;;;3.95;1.30;;;17.60;95.70;;;;;;4969889;28;20043;-53
2022/07/17 04:42:50;;;;;;;2.00;1.30;;;17.60;95.90;;;;;;4969768;28;20074;-54
2022/07/17 04:45:19;;;;;;;3.10;1.40;;;17.50;96.00;;;;;;4969285;28;20130;-55
2022/07/17 04:47:46;;;;;;;5.00;1.10;;;17.50;96.10;;;;;;4959581;28;20462;-52
2022/07/17 04:50:13;;;;;;;6.65;1.17;;;17.50;96.20;;;;;;4969166;28;20298;-55
2022/07/17 04:52:40;;;;;;;4.50;2.13;;;17.50;96.30;;;;;;4969355;28;20085;-55
2022/07/17 04:55:07;;;;;;;4.88;1.83;;;17.40;96.50;;;;;;4969596;28;20054;-52
2022/07/17 04:57:34;;;;;;;2.67;1.30;;;17.30;96.70;;;;;;4969424;28;20046;-53
2022/07/17 05:00:03;;;;;;;3.28;1.23;;;17.30;96.90;;;;;;4969790;28;20054;-54
2022/07/17 05:02:30;;;;;;;7.47;1.58;;;17.30;97.10;;;;;;4968551;28;20042;-54
2022/07/17 05:04:57;;;;;;;5.97;2.20;;;17.30;97.10;;;;;;4969590;28;20055;-53
2022/07/17 05:07:24;;;;;;;2.97;1.27;;;17.30;97.30;;;;;;4969148;28;20117;-55
2022/07/17 05:09:50;;;;;;;3.42;1.70;;;17.30;97.40;;;;;;4969904;28;20183;-54
2022/07/17 05:12:19;;;;;;;2.00;1.27;;;17.30;97.60;;;;;;4968602;28;20134;-53
2022/07/17 05:14:45;;;;;;;2.47;1.35;;;17.40;97.80;;;;;;4969086;28;20090;-52
2022/07/17 05:17:13;;;;;;;6.78;2.70;;;17.40;97.80;;;;;;4969179;28;20043;-54
2022/07/17 05:19:39;;;;;;;6.20;1.67;;;17.40;98.00;;;;;;4968997;28;20117;-53
2022/07/17 05:22:06;;;;;;;4.25;1.60;;;17.40;98.10;;;;;;4968521;28;20070;-51
2022/07/17 05:24:33;;;;;;;2.17;1.30;;;17.40;98.20;;;;;;4969231;28;20078;-54
2022/07/17 05:27:03;;;;;;;5.60;1.65;;;17.50;98.20;;;;;;4969201;28;20078;-56
2022/07/17 05:29:30;;;;;;;6.07;2.15;;;17.50;98.20;;;;;;4968216;28;20066;-56
2022/07/17 05:31:57;;;;;;;2.63;1.30;;;17.50;98.30;;;;;;4968280;28;20070;-56
2022/07/17 05:34:23;;;;;;;2.30;1.40;;;17.60;98.40;;;;;;4968683;28;20190;-52
2022/07/17 05:36:50;;;;;;;6.70;1.60;;;17.60;98.50;;;;;;4969239;28;20043;-55
2022/07/17 05:39:17;;;;;;;6.32;1.50;;;17.60;98.60;;;;;;4968914;28;20097;-55
2022/07/17 05:41:44;;;;;;;6.65;1.55;;;17.70;98.60;;;;;;4968662;28;20050;-54
2022/07/17 05:44:11;;;;;;;2.45;1.50;;;17.70;98.60;;;;;;4968183;28;20046;-55
2022/07/17 05:46:37;;;;;;;3.95;1.55;;;17.80;98.50;;;;;;4969256;28;20087;-54
2022/07/17 05:49:04;;;;;;;2.05;1.70;;;17.90;98.60;;;;;;4968730;28;20344;-55
2022/07/17 05:51:31;;;;;;;4.97;1.40;;;17.80;98.80;;;;;;4968129;28;20098;-55
2022/07/17 05:53:59;;;;;;;2.55;1.13;;;17.80;99.00;;;;;;4967853;28;20460;-48
2022/07/17 05:56:26;;;;;;;5.40;2.25;;;17.90;98.90;;;;;;4968778;28;20050;-53
2022/07/17 05:58:53;;;;;;;4.40;1.65;;;18.10;98.80;;;;;;4968816;28;20086;-53
2022/07/17 06:01:20;;;;;;;4.82;1.38;;;18.10;98.60;;;;;;4967619;28;20082;-55
2022/07/17 06:03:47;;;;;;;2.83;1.75;;;18.20;98.90;;;;;;4968714;28;20047;-54
2022/07/17 06:06:14;;;;;;;2.95;1.20;;;18.30;98.60;;;;;;4968069;28;20047;-55
2022/07/17 06:08:41;;;;;;;6.82;1.42;;;18.50;98.50;;;;;;4968837;28;20047;-52
2022/07/17 06:11:07;;;;;;;4.95;1.48;;;18.50;98.30;;;;;;4968083;28;20466;-55
2022/07/17 06:13:34;;;;;;;3.80;1.48;;;18.60;98.10;;;;;;4968498;28;20043;-53
2022/07/17 06:16:01;;;;;;;6.55;1.50;;;18.70;98.10;;;;;;4968744;28;20058;-54
2022/07/17 06:18:28;;;;;;;3.08;1.60;;;18.70;97.80;;;;;;4967718;28;20117;-55
2022/07/17 06:20:55;;;;;;;3.33;1.40;;;18.80;97.70;;;;;;4967970;28;20134;-54
2022/07/17 06:23:22;;;;;;;6.43;2.55;;;18.80;97.50;;;;;;4967772;28;20055;-53
2022/07/17 06:25:48;;;;;;;5.18;1.35;;;18.90;97.40;;;;;;4967949;28;20074;-54
2022/07/17 06:28:15;;;;;;;3.95;1.45;;;18.90;97.30;;;;;;4968175;28;20075;-55
2022/07/17 06:30:42;;;;;;;6.80;1.38;;;19.00;97.10;;;;;;4966151;28;20054;-54
2022/07/17 06:33:09;;;;;;;4.28;1.35;;;19.10;96.90;;;;;;4967164;28;20082;-53
2022/07/17 06:35:36;;;;;;;7.93;3.58;;;19.20;96.50;;;;;;4968188;28;20117;-55
2022/07/17 06:38:10;;;;;;;5.38;1.50;;;19.30;96.20;;;;;;4968166;28;20046;-52
2022/07/17 06:40:37;;;;;;;3.72;1.45;;;19.30;96.00;;;;;;4968366;28;20058;-49
2022/07/17 06:43:06;;;;;;;5.38;1.75;;;19.40;96.00;;;;;;4965485;28;20097;-53
2022/07/17 06:45:33;;;;;;;3.13;1.77;;;19.50;95.70;;;;;;4971433;28;20054;-55
2022/07/17 06:48:00;;;;;;;5.43;1.60;;;19.50;95.60;;;;;;4971530;28;20105;-53
2022/07/17 06:50:27;;;;;;;2.13;1.10;;;19.60;95.50;;;;;;4970875;28;20053;-55
2022/07/17 06:52:54;;;;;;;5.63;1.50;;;19.60;95.20;;;;;;4971690;28;20050;-54
2022/07/17 06:55:21;;;;;;;8.10;1.88;;;19.70;94.70;;;;;;4970994;28;20569;-54
2022/07/17 06:57:48;;;;;;;4.63;1.42;;;19.80;94.50;;;;;;4971671;28;20053;-55
2022/07/17 07:00:17;;;;;;;5.28;1.65;;;19.90;94.20;;;;;;4971243;28;20047;-56
2022/07/17 07:02:44;;;;;;;2.95;1.27;;;20.00;94.10;;;;;;4970879;28;20070;-53
2022/07/17 07:05:11;;;;;;;2.25;1.38;;;20.10;93.90;;;;;;4970767;28;20046;-54
2022/07/17 07:07:39;;;;;;;2.83;1.10;;;20.20;93.70;;;;;;4970488;28;20517;-54
2022/07/17 07:10:06;;;;;;;2.90;1.20;;;20.30;93.30;;;;;;4627770;28;10000003;-55
2022/07/17 07:12:33;;;;;;;2.58;1.40;;;20.40;92.90;;;;;;4967530;28;20082;-57
2022/07/17 07:14:59;;;;;;;5.45;1.42;;;20.50;92.70;;;;;;4968205;28;20071;-53
2022/07/17 07:17:26;;;;;;;6.25;1.65;;;20.50;92.80;;;;;;4967945;28;20051;-57
2022/07/17 07:19:53;;;;;;;1.83;1.20;;;20.60;92.40;;;;;;4968995;28;20082;-54
2022/07/17 07:22:20;;;;;;;6.60;1.15;;;20.70;92.20;;;;;;4969844;28;20074;-54
2022/07/17 07:24:46;;;;;;;5.20;1.30;;;20.70;91.40;;;;;;4971058;28;20141;-55
2022/07/17 07:27:13;;;;;;;2.92;1.30;;;20.80;91.10;;;;;;4970510;28;20043;-52
2022/07/17 07:29:40;;;;;;;6.57;1.70;;;20.90;90.40;;;;;;4970900;28;20102;-53
2022/07/17 07:32:07;;;;;;;2.42;1.38;;;21.00;90.10;;;;;;4971140;28;20051;-53
2022/07/17 07:34:34;;;;;;;10.73;1.42;;;21.10;89.70;;;;;;4970909;28;20122;-54
2022/07/17 07:37:01;;;;;;;2.00;0.90;;;21.20;88.40;;;;;;4970843;28;20085;-54
2022/07/17 07:39:27;;;;;;;2.50;1.30;;;21.20;87.50;;;;;;4970455;28;20074;-57
2022/07/17 07:41:54;;;;;;;3.20;1.98;;;21.30;86.80;;;;;;4968840;28;20050;-53
2022/07/17 07:44:21;;;;;;;2.22;1.17;;;21.30;86.80;;;;;;4969857;28;20490;-55
2022/07/17 07:46:57;;;;;;;3.00;1.30;;;21.40;85.80;;;;;;4959565;28;20771;-55
2022/07/17 07:49:24;;;;;;;4.05;1.17;;;21.50;85.30;;;;;;4970478;28;20054;-53
2022/07/17 07:51:51;;;;;;;2.72;1.25;;;21.50;85.00;;;;;;4970424;28;20069;-52
2022/07/17 07:54:29;;;;;;;2.15;1.50;;;21.60;84.40;;;;;;4969362;28;20055;-52
2022/07/17 07:56:56;;;;;;;2.80;1.35;;;21.70;84.10;;;;;;4970052;28;20113;-55
2022/07/17 07:59:23;;;;;;;3.72;1.58;;;21.80;79.90;;;;;;4970444;28;20039;-50
2022/07/17 08:01:50;;;;;;;4.65;1.10;;;21.90;81.40;;;;;;4953536;28;20101;-52
2022/07/17 08:04:17;;;;;;;4.32;1.25;;;22.00;80.30;;;;;;4970427;28;20046;-52
2022/07/17 08:06:44;;;;;;;1.63;1.10;;;22.10;79.50;;;;;;4970053;28;20052;-53
2022/07/17 08:09:11;;;;;;;4.90;1.30;;;22.10;78.70;;;;;;4970286;28;20126;-56
2022/07/17 08:11:38;;;;;;;5.25;2.15;;;22.20;77.80;;;;;;4970683;28;20051;-54
2022/07/17 08:14:05;;;;;;;2.10;1.40;;;22.30;77.40;;;;;;4968371;28;20105;-55
2022/07/17 08:16:42;;;;;;;3.45;1.98;;;22.40;76.80;;;;;;4965599;28;20143;-53
2022/07/17 08:19:09;;;;;;;6.22;1.48;;;22.50;76.40;;;;;;4969450;28;20039;-55
2022/07/17 08:21:36;;;;;;;2.13;1.25;;;22.60;76.00;;;;;;4969974;28;20541;-54
2022/07/17 08:24:04;;;;;;;3.63;1.25;;;22.60;75.50;;;;;;4969682;28;20053;-54
2022/07/17 08:26:31;;;;;;;4.82;1.35;;;22.60;74.90;;;;;;4967832;28;20053;-57
2022/07/17 08:28:58;;;;;;;2.60;1.30;;;22.70;74.50;;;;;;4968817;28;20113;-60
2022/07/17 08:31:25;;;;;;;2.28;1.20;;;22.80;74.00;;;;;;4969960;28;20097;-58
2022/07/17 08:33:52;;;;;;;4.30;1.50;;;23.00;74.30;;;;;;4969439;28;20134;-58
2022/07/17 08:36:20;;;;;;;2.65;1.70;;;23.10;73.50;;;;;;4968055;28;20051;-56
2022/07/17 08:38:47;;;;;;;2.72;1.23;;;23.10;72.90;;;;;;4969610;28;20113;-56
2022/07/17 08:41:16;;;;;;;2.67;1.40;;;23.20;72.30;;;;;;4969104;28;20059;-54
2022/07/17 08:43:43;;;;;;;1.67;1.20;;;23.30;72.00;;;;;;4967068;28;20051;-56
2022/07/17 08:46:11;;;;;;;2.22;1.15;;;23.30;71.30;;;;;;4969204;28;20518;-55
2022/07/17 08:48:39;;;;;;;6.80;1.30;;;23.40;70.50;;;;;;4969146;28;20085;-55
2022/07/17 08:51:07;;;;;;;7.05;1.65;;;23.50;69.70;;;;;;4966853;28;20050;-55
2022/07/17 08:53:34;;;;;;;5.22;1.55;;;23.50;69.00;;;;;;4963051;28;20372;-55
2022/07/17 08:56:01;;;;;;;2.60;1.10;;;23.50;69.40;;;;;;4968938;28;20082;-56
2022/07/17 08:58:27;;;;;;;6.03;1.60;;;23.60;68.90;;;;;;4967798;28;21405;-57
2022/07/17 09:00:54;;;;;;;4.20;1.17;;;23.60;68.60;;;;;;4967678;28;20106;-54
2022/07/17 09:03:23;;;;;;;1.98;1.30;;;23.70;68.40;;;;;;4968551;28;20046;-56
2022/07/17 09:05:50;;;;;;;2.47;1.25;;;23.70;68.20;;;;;;4968361;28;20485;-54
2022/07/17 09:08:23;;;;;;;2.53;1.30;;;23.90;67.80;;;;;;4961301;28;20086;-55
2022/07/17 09:10:52;;;;;;;2.73;1.10;;;23.90;66.90;;;;;;4967627;28;20047;-55
2022/07/17 09:13:31;;;;;;;1.65;1.45;;;24.00;66.50;;;;;;4967268;28;20296;-56
2022/07/17 09:16:10;;;;;;;2.35;1.55;;;24.10;66.00;;;;;;4967790;28;20050;-55
2022/07/17 09:18:49;;;;;;;2.97;1.42;;;24.20;65.30;;;;;;4967965;28;20580;-56
2022/07/17 09:21:17;;;;;;;4.18;1.30;;;24.30;66.20;;;;;;4622898;28;10000622;-59
2022/07/17 09:23:44;;;;;;;3.05;1.40;;;24.40;66.70;;;;;;4964511;28;20055;-51
2022/07/17 09:26:11;;;;;;;2.40;1.33;;;24.50;66.50;;;;;;4965655;28;20053;-56
2022/07/17 09:28:45;;;;;;;2.95;1.40;;;24.50;65.90;;;;;;4951443;28;20051;-56
2022/07/17 09:31:14;;;;;;;2.85;1.40;;;24.60;65.50;;;;;;4968449;28;20114;-56
2022/07/17 09:33:41;;;;;;;3.20;1.73;;;24.80;66.30;;;;;;4966792;28;20130;-57
2022/07/17 09:36:12;;;;;;;2.50;1.38;;;24.90;65.70;;;;;;4966005;28;20046;-56
2022/07/17 09:38:40;;;;;;;5.28;1.50;;;24.90;65.50;;;;;;4968442;28;20043;-54
2022/07/17 09:41:15;;;;;;;4.93;1.50;;;25.00;64.90;;;;;;4967453;28;20078;-52
2022/07/17 09:43:46;;;;;;;7.38;1.95;;;25.00;65.10;;;;;;4967578;28;20055;-56
2022/07/17 09:46:18;;;;;;;5.75;1.27;;;25.20;64.60;;;;;;4966969;28;20482;-54
2022/07/17 09:48:55;;;;;;;4.00;1.35;;;25.20;64.90;;;;;;4961025;28;20085;-51
2022/07/17 09:51:27;;;;;;;7.20;1.67;;;25.40;65.10;;;;;;4960420;28;20043;-54
2022/07/17 09:53:58;;;;;;;3.08;1.38;;;25.40;64.30;;;;;;4965645;28;20058;-54
2022/07/17 09:56:31;;;;;;;2.90;1.80;;;25.50;63.90;;;;;;4968161;28;20047;-55
2022/07/17 09:59:06;;;;;;;3.88;1.60;;;25.50;64.30;;;;;;4968402;28;20051;-53
2022/07/17 10:01:33;;;;;;;4.38;1.42;;;25.70;63.50;;;;;;4968266;28;20070;-54
2022/07/17 10:04:01;;;;;;;3.83;1.80;;;25.70;63.90;;;;;;4961368;28;20051;-55
2022/07/17 10:06:28;;;;;;;4.72;1.42;;;25.80;63.50;;;;;;4960248;28;20446;-55
2022/07/17 10:08:55;;;;;;;8.27;1.40;;;25.90;63.30;;;;;;4961819;28;20055;-55
2022/07/17 10:11:30;;;;;;;3.33;1.38;;;26.10;62.90;;;;;;4961818;28;20548;-56
2022/07/17 10:14:01;;;;;;;3.00;1.52;;;26.40;61.80;;;;;;4963569;28;20151;-53
2022/07/17 10:16:32;;;;;;;3.13;1.60;;;26.80;62.40;;;;;;4966795;28;20054;-54
2022/07/17 10:19:02;;;;;;;3.13;1.55;;;27.20;60.70;;;;;;4969290;28;20054;-53
2022/07/17 10:21:30;;;;;;;4.47;1.38;;;27.50;61.20;;;;;;4972057;28;20050;-54
2022/07/17 10:23:57;;;;;;;4.13;1.52;;;27.60;60.50;;;;;;4970340;28;20043;-55
2022/07/17 10:26:34;;;;;;;1.98;1.30;;;27.80;60.10;;;;;;4971894;28;21533;-53
2022/07/17 10:29:01;;;;;;;3.30;1.20;;;28.10;55.90;;;;;;4967176;28;20065;-55
2022/07/17 10:31:30;;;;;;;2.53;1.60;;;28.20;58.40;;;;;;4970564;28;20097;-53
2022/07/17 10:33:58;;;;;;;1.95;1.60;;;28.40;57.50;;;;;;4970300;28;20498;-53
2022/07/17 10:36:39;;;;;;;2.58;1.52;;;28.60;56.40;;;;;;4971972;28;20078;-54
2022/07/17 10:39:13;;;;;;;4.80;1.65;;;28.90;52.50;;;;;;4968829;28;20078;-55
2022/07/17 10:41:40;;;;;;;2.10;1.77;;;29.10;53.50;;;;;;4971931;28;20082;-54
2022/07/17 10:44:07;;;;;;;3.72;1.70;;;29.20;54.90;;;;;;4970924;28;20137;-55
2022/07/17 10:46:34;;;;;;;3.67;1.65;;;29.30;55.00;;;;;;4971387;28;20311;-55
2022/07/17 10:49:04;;;;;;;6.93;1.45;;;29.40;54.80;;;;;;4971015;28;20046;-56
2022/07/17 10:51:32;;;;;;;5.00;2.30;;;29.60;54.50;;;;;;4971447;28;20732;-54
2022/07/17 10:53:59;;;;;;;3.80;1.55;;;29.70;53.30;;;;;;4965902;28;20058;-55
2022/07/17 10:56:26;;;;;;;2.50;1.33;;;29.60;53.50;;;;;;4967140;28;20051;-54
2022/07/17 10:58:53;;;;;;;2.42;1.27;;;29.50;53.20;;;;;;4964962;28;20070;-53
2022/07/17 11:01:27;;;;;;;7.00;1.95;;;29.30;52.90;;;;;;4965071;28;20071;-53
2022/07/17 11:03:56;;;;;;;1.67;1.13;;;29.00;52.90;;;;;;4967154;28;20057;-55
2022/07/17 11:06:25;;;;;;;2.28;1.38;;;28.90;53.20;;;;;;4965741;28;20047;-54
2022/07/17 11:08:55;;;;;;;2.25;1.35;;;28.70;53.00;;;;;;4967192;28;20057;-50
2022/07/17 11:11:37;;;;;;;1.88;1.30;;;28.50;53.20;;;;;;4964692;28;20074;-55
2022/07/17 11:14:23;;;;;;;3.92;1.80;;;28.40;53.40;;;;;;4968713;28;20129;-56
2022/07/17 11:16:54;;;;;;;2.33;1.38;;;28.20;52.20;;;;;;4970962;28;20082;-55
2022/07/17 11:19:22;;;;;;;6.03;1.52;;;28.10;52.80;;;;;;4970964;28;20161;-56
2022/07/17 11:21:50;;;;;;;4.22;1.88;;;28.10;53.90;;;;;;4971254;28;20409;-54
2022/07/17 11:24:17;;;;;;;5.30;1.60;;;28.00;54.00;;;;;;4970423;28;20454;-56
2022/07/17 11:26:45;;;;;;;4.22;1.77;;;28.00;54.00;;;;;;4971029;28;20057;-56
2022/07/17 11:29:14;;;;;;;4.80;1.48;;;28.00;53.70;;;;;;4970898;28;20066;-55
2022/07/17 11:31:41;;;;;;;4.25;1.50;;;28.10;53.90;;;;;;4970797;28;20715;-55
2022/07/17 11:34:11;;;;;;;5.80;1.75;;;27.90;53.80;;;;;;4965085;28;20043;-57
2022/07/17 11:36:41;;;;;;;3.40;1.75;;;27.90;54.40;;;;;;4967575;28;20050;-52
2022/07/17 11:39:15;;;;;;;2.67;1.50;;;27.90;54.40;;;;;;4970800;28;20093;-54
2022/07/17 11:41:47;;;;;;;2.60;1.67;;;27.90;53.20;;;;;;4962009;28;20058;-54
2022/07/17 11:44:15;;;;;;;3.70;2.13;;;28.00;53.90;;;;;;4969740;28;20486;-54
2022/07/17 11:46:43;;;;;;;5.35;2.55;;;28.10;53.80;;;;;;4970538;28;20561;-55
2022/07/17 11:49:10;;;;;;;3.15;1.55;;;28.10;53.30;;;;;;4970668;28;20047;-54
2022/07/17 11:51:43;;;;;;;2.25;1.52;;;28.20;53.50;;;;;;4969127;28;20043;-56
2022/07/17 11:54:14;;;;;;;4.65;1.88;;;28.20;52.70;;;;;;4970038;28;20490;-55
2022/07/17 11:56:51;;;;;;;3.38;1.52;;;28.20;53.00;;;;;;4967198;28;20089;-52
2022/07/17 11:59:27;;;;;;;3.50;1.95;;;28.20;53.40;;;;;;4970243;28;20178;-55
2022/07/17 12:01:54;;;;;;;6.20;1.80;;;28.30;52.10;;;;;;4968096;28;20058;-57
2022/07/17 12:04:21;;;;;;;3.28;2.28;;;28.20;53.00;;;;;;4968255;28;20085;-57
2022/07/17 12:07:00;;;;;;;3.85;1.50;;;28.20;53.10;;;;;;4969293;28;20157;-56
2022/07/17 12:09:28;;;;;;;3.47;1.60;;;28.10;52.40;;;;;;4959170;28;20043;-54
2022/07/17 12:11:55;;;;;;;4.30;1.60;;;28.30;53.40;;;;;;4966139;28;20467;-58
2022/07/17 12:14:22;;;;;;;2.33;1.70;;;28.40;53.40;;;;;;4962696;28;20085;-55
2022/07/17 12:16:49;;;;;;;5.28;1.70;;;28.50;53.00;;;;;;4969444;28;20322;-54
2022/07/17 12:19:18;;;;;;;4.05;2.00;;;28.60;52.10;;;;;;4969903;28;20039;-51
2022/07/17 12:22:06;;;;;;;2.53;1.80;;;28.60;52.20;;;;;;4969978;28;20082;-53
2022/07/17 12:24:44;;;;;;;9.43;3.28;;;28.60;50.90;;;;;;4965616;28;20109;-54
2022/07/17 12:27:17;;;;;;;3.55;2.38;;;28.60;51.40;;;;;;4968047;28;20055;-55
2022/07/17 12:29:46;;;;;;;3.25;1.85;;;28.70;51.20;;;;;;4968853;28;20054;-57
2022/07/17 12:32:22;;;;;;;3.35;2.05;;;28.70;52.00;;;;;;4966765;28;20679;-58
2022/07/17 12:34:53;;;;;;;7.22;2.30;;;28.80;51.20;;;;;;4963869;28;20360;-56
2022/07/17 12:37:27;;;;;;;5.80;2.40;;;28.80;51.30;;;;;;4968039;28;20050;-53
2022/07/17 12:39:55;;;;;;;3.17;1.77;;;28.90;51.30;;;;;;4966692;28;20113;-56
2022/07/17 12:42:22;;;;;;;5.05;2.10;;;28.90;51.10;;;;;;4969295;28;20059;-57
2022/07/17 12:44:49;;;;;;;2.83;1.92;;;28.90;51.00;;;;;;4960350;28;20474;-54
2022/07/17 12:47:16;;;;;;;6.32;2.17;;;29.00;51.00;;;;;;4969263;28;20061;-54
2022/07/17 12:49:43;;;;;;;2.20;1.77;;;29.00;51.30;;;;;;4969546;28;20054;-56